sensor_id;sensor_type;location;lat;lon;timestamp;temperature;humidity
12027;DHT22;6074;52.676;7.284;2022-08-01T00:04:01;18.10;99.90
12027;DHT22;6074;52.676;7.284;2022-08-01T00:06:30;18.10;99.90
12027;DHT22;6074;52.676;7.284;2022-08-01T00:08:57;18.70;99.90
12027;DHT22;6074;52.676;7.284;2022-08-01T00:11:24;18.50;99.90
12027;DHT22;6074;52.676;7.284;2022-08-01T00:13:50;18.30;99.90
12027;DHT22;6074;52.676;7.284;2022-08-01T00:16:17;18.30;99.90
12027;DHT22;6074;52.676;7.284;2022-08-01T00:21:11;18.10;99.90
12027;DHT22;6074;52.676;7.284;2022-08-01T00:23:39;18.60;99.90
12027;DHT22;6074;52.676;7.284;2022-08-01T00:26:06;17.80;99.90
12027;DHT22;6074;52.676;7.284;2022-08-01T00:31:00;18.10;99.90
12027;DHT22;6074;52.676;7.284;2022-08-01T00:35:54;18.20;99.90
12027;DHT22;6074;52.676;7.284;2022-08-01T00:40:49;18.20;99.90
12027;DHT22;6074;52.676;7.284;2022-08-01T00:50:38;18.00;99.90
12027;DHT22;6074;52.676;7.284;2022-08-01T00:53:05;18.20;99.90
12027;DHT22;6074;52.676;7.284;2022-08-01T00:55:32;18.30;99.90
12027;DHT22;6074;52.676;7.284;2022-08-01T00:58:00;18.20;99.90
12027;DHT22;6074;52.676;7.284;2022-08-01T01:08:02;18.10;99.90
12027;DHT22;6074;52.676;7.284;2022-08-01T01:10:34;18.10;99.90
12027;DHT22;6074;52.676;7.284;2022-08-01T01:13:06;18.10;99.90
12027;DHT22;6074;52.676;7.284;2022-08-01T01:15:40;18.20;99.90
12027;DHT22;6074;52.676;7.284;2022-08-01T01:18:11;18.00;99.90
12027;DHT22;6074;52.676;7.284;2022-08-01T01:20:41;18.60;99.90
12027;DHT22;6074;52.676;7.284;2022-08-01T01:23:24;18.00;99.90
12027;DHT22;6074;52.676;7.284;2022-08-01T01:26:11;18.00;99.90
12027;DHT22;6074;52.676;7.284;2022-08-01T01:29:00;18.00;99.90
12027;DHT22;6074;52.676;7.284;2022-08-01T01:31:31;17.90;99.90
12027;DHT22;6074;52.676;7.284;2022-08-01T01:33:59;17.90;99.90
12027;DHT22;6074;52.676;7.284;2022-08-01T01:36:30;18.00;99.90
12027;DHT22;6074;52.676;7.284;2022-08-01T01:41:25;18.00;99.90
12027;DHT22;6074;52.676;7.284;2022-08-01T01:43:54;17.80;99.90
12027;DHT22;6074;52.676;7.284;2022-08-01T01:46:24;17.90;99.90
12027;DHT22;6074;52.676;7.284;2022-08-01T01:48:54;17.80;99.90
12027;DHT22;6074;52.676;7.284;2022-08-01T01:51:23;17.90;99.90
12027;DHT22;6074;52.676;7.284;2022-08-01T01:53:52;18.10;99.90
12027;DHT22;6074;52.676;7.284;2022-08-01T01:56:20;19.70;99.90
12027;DHT22;6074;52.676;7.284;2022-08-01T01:58:50;17.90;99.90
12027;DHT22;6074;52.676;7.284;2022-08-01T02:01:20;17.90;99.90
12027;DHT22;6074;52.676;7.284;2022-08-01T02:03:48;17.90;99.90
12027;DHT22;6074;52.676;7.284;2022-08-01T02:06:16;17.90;99.90
12027;DHT22;6074;52.676;7.284;2022-08-01T02:08:44;18.00;99.90
12027;DHT22;6074;52.676;7.284;2022-08-01T02:13:48;18.40;99.90
12027;DHT22;6074;52.676;7.284;2022-08-01T02:16:16;17.90;99.90
12027;DHT22;6074;52.676;7.284;2022-08-01T02:18:45;17.90;99.90
12027;DHT22;6074;52.676;7.284;2022-08-01T02:21:14;17.90;99.90
12027;DHT22;6074;52.676;7.284;2022-08-01T02:23:43;17.90;99.90
12027;DHT22;6074;52.676;7.284;2022-08-01T02:26:14;17.80;99.90
12027;DHT22;6074;52.676;7.284;2022-08-01T02:28:45;18.00;99.90
12027;DHT22;6074;52.676;7.284;2022-08-01T02:31:14;17.90;99.90
12027;DHT22;6074;52.676;7.284;2022-08-01T02:33:46;17.90;99.90
12027;DHT22;6074;52.676;7.284;2022-08-01T02:36:16;17.90;99.90
12027;DHT22;6074;52.676;7.284;2022-08-01T02:38:46;17.90;99.90
12027;DHT22;6074;52.676;7.284;2022-08-01T02:41:19;17.80;99.90
12027;DHT22;6074;52.676;7.284;2022-08-01T02:43:49;17.80;99.90
12027;DHT22;6074;52.676;7.284;2022-08-01T02:46:24;17.80;99.90
12027;DHT22;6074;52.676;7.284;2022-08-01T02:48:55;17.70;99.90
12027;DHT22;6074;52.676;7.284;2022-08-01T02:51:25;17.80;99.90
12027;DHT22;6074;52.676;7.284;2022-08-01T02:53:53;17.80;99.90
12027;DHT22;6074;52.676;7.284;2022-08-01T02:56:21;17.80;99.90
12027;DHT22;6074;52.676;7.284;2022-08-01T02:58:50;17.80;99.90
12027;DHT22;6074;52.676;7.284;2022-08-01T03:01:19;17.80;99.90
12027;DHT22;6074;52.676;7.284;2022-08-01T03:06:17;17.80;99.90
12027;DHT22;6074;52.676;7.284;2022-08-01T03:08:45;17.70;99.90
12027;DHT22;6074;52.676;7.284;2022-08-01T03:11:15;17.80;99.90
12027;DHT22;6074;52.676;7.284;2022-08-01T03:13:43;17.70;99.90
12027;DHT22;6074;52.676;7.284;2022-08-01T03:16:12;17.40;99.90
12027;DHT22;6074;52.676;7.284;2022-08-01T03:18:40;18.20;99.90
12027;DHT22;6074;52.676;7.284;2022-08-01T03:21:08;17.70;99.90
12027;DHT22;6074;52.676;7.284;2022-08-01T03:23:38;17.80;99.90
12027;DHT22;6074;52.676;7.284;2022-08-01T03:26:06;17.60;99.90
12027;DHT22;6074;52.676;7.284;2022-08-01T03:28:33;17.80;99.90
12027;DHT22;6074;52.676;7.284;2022-08-01T03:31:02;17.30;99.90
12027;DHT22;6074;52.676;7.284;2022-08-01T03:33:29;17.70;99.90
12027;DHT22;6074;52.676;7.284;2022-08-01T03:35:57;17.60;99.90
12027;DHT22;6074;52.676;7.284;2022-08-01T03:38:25;17.70;99.90
12027;DHT22;6074;52.676;7.284;2022-08-01T03:40:58;17.70;99.90
12027;DHT22;6074;52.676;7.284;2022-08-01T03:43:30;17.70;99.90
12027;DHT22;6074;52.676;7.284;2022-08-01T03:48:35;17.60;99.90
12027;DHT22;6074;52.676;7.284;2022-08-01T03:51:04;17.70;99.90
12027;DHT22;6074;52.676;7.284;2022-08-01T03:53:33;17.60;99.90
12027;DHT22;6074;52.676;7.284;2022-08-01T03:56:02;17.60;99.90
12027;DHT22;6074;52.676;7.284;2022-08-01T03:58:34;17.30;99.90
12027;DHT22;6074;52.676;7.284;2022-08-01T04:01:01;17.60;99.90
12027;DHT22;6074;52.676;7.284;2022-08-01T04:03:28;17.50;99.90
12027;DHT22;6074;52.676;7.284;2022-08-01T04:13:18;17.60;99.90
12027;DHT22;6074;52.676;7.284;2022-08-01T04:20:39;17.50;99.90
12027;DHT22;6074;52.676;7.284;2022-08-01T04:25:34;17.70;99.90
12027;DHT22;6074;52.676;7.284;2022-08-01T04:28:06;17.60;99.90
12027;DHT22;6074;52.676;7.284;2022-08-01T04:30:38;17.70;99.90
12027;DHT22;6074;52.676;7.284;2022-08-01T04:33:08;17.50;99.90
12027;DHT22;6074;52.676;7.284;2022-08-01T04:35:36;17.60;99.90
12027;DHT22;6074;52.676;7.284;2022-08-01T04:38:07;17.50;99.90
12027;DHT22;6074;52.676;7.284;2022-08-01T04:40:35;17.50;99.90
12027;DHT22;6074;52.676;7.284;2022-08-01T04:45:30;17.30;99.90
12027;DHT22;6074;52.676;7.284;2022-08-01T04:47:59;17.30;99.90
12027;DHT22;6074;52.676;7.284;2022-08-01T04:50:26;17.50;99.90
12027;DHT22;6074;52.676;7.284;2022-08-01T04:52:53;17.20;99.90
12027;DHT22;6074;52.676;7.284;2022-08-01T04:55:19;17.30;99.90
12027;DHT22;6074;52.676;7.284;2022-08-01T05:00:14;17.30;99.90
12027;DHT22;6074;52.676;7.284;2022-08-01T05:05:11;17.30;99.90
12027;DHT22;6074;52.676;7.284;2022-08-01T05:10:06;17.40;99.90
12027;DHT22;6074;52.676;7.284;2022-08-01T05:22:24;17.40;99.90
12027;DHT22;6074;52.676;7.284;2022-08-01T05:24:51;17.30;99.90
12027;DHT22;6074;52.676;7.284;2022-08-01T05:37:07;17.30;99.90
12027;DHT22;6074;52.676;7.284;2022-08-01T05:39:35;17.30;99.90
12027;DHT22;6074;52.676;7.284;2022-08-01T05:56:46;17.30;99.90
12027;DHT22;6074;52.676;7.284;2022-08-01T05:59:13;17.40;99.90
12027;DHT22;6074;52.676;7.284;2022-08-01T06:01:39;17.40;99.90
12027;DHT22;6074;52.676;7.284;2022-08-01T06:06:33;17.40;99.90
12027;DHT22;6074;52.676;7.284;2022-08-01T06:09:00;17.60;99.90
12027;DHT22;6074;52.676;7.284;2022-08-01T06:13:55;17.40;99.90
12027;DHT22;6074;52.676;7.284;2022-08-01T06:16:22;17.50;99.90
12027;DHT22;6074;52.676;7.284;2022-08-01T06:18:49;16.90;99.90
12027;DHT22;6074;52.676;7.284;2022-08-01T06:31:06;17.20;99.90
12027;DHT22;6074;52.676;7.284;2022-08-01T06:36:00;17.20;99.90
12027;DHT22;6074;52.676;7.284;2022-08-01T06:48:16;16.90;99.90
12027;DHT22;6074;52.676;7.284;2022-08-01T06:50:43;16.70;99.90
12027;DHT22;6074;52.676;7.284;2022-08-01T06:55:37;16.60;99.90
12027;DHT22;6074;52.676;7.284;2022-08-01T07:05:27;16.70;99.90
12027;DHT22;6074;52.676;7.284;2022-08-01T07:07:56;16.70;99.90
12027;DHT22;6074;52.676;7.284;2022-08-01T07:15:17;16.60;99.90
12027;DHT22;6074;52.676;7.284;2022-08-01T07:17:46;16.80;99.90
12027;DHT22;6074;52.676;7.284;2022-08-01T07:22:41;15.80;99.90
12027;DHT22;6074;52.676;7.284;2022-08-01T07:25:08;16.90;99.90
12027;DHT22;6074;52.676;7.284;2022-08-01T07:27:36;16.90;99.90
12027;DHT22;6074;52.676;7.284;2022-08-01T07:30:04;17.10;99.90
12027;DHT22;6074;52.676;7.284;2022-08-01T07:39:54;17.20;99.90
12027;DHT22;6074;52.676;7.284;2022-08-01T07:42:21;17.20;99.90
12027;DHT22;6074;52.676;7.284;2022-08-01T07:44:48;17.30;99.90
12027;DHT22;6074;52.676;7.284;2022-08-01T07:57:04;17.50;99.90
12027;DHT22;6074;52.676;7.284;2022-08-01T08:06:53;17.50;99.90
12027;DHT22;6074;52.676;7.284;2022-08-01T08:14:16;17.50;99.90
12027;DHT22;6074;52.676;7.284;2022-08-01T08:24:05;17.70;99.90
12027;DHT22;6074;52.676;7.284;2022-08-01T08:26:51;17.70;99.90
12027;DHT22;6074;52.676;7.284;2022-08-01T08:29:20;17.80;99.90
12027;DHT22;6074;52.676;7.284;2022-08-01T08:31:47;18.00;99.90
12027;DHT22;6074;52.676;7.284;2022-08-01T08:36:41;17.70;99.90
12027;DHT22;6074;52.676;7.284;2022-08-01T08:41:35;17.80;99.90
12027;DHT22;6074;52.676;7.284;2022-08-01T08:46:32;17.90;99.90
12027;DHT22;6074;52.676;7.284;2022-08-01T08:49:00;18.00;99.90
12027;DHT22;6074;52.676;7.284;2022-08-01T08:51:28;18.10;99.90
12027;DHT22;6074;52.676;7.284;2022-08-01T08:53:57;18.30;99.90
12027;DHT22;6074;52.676;7.284;2022-08-01T08:56:25;18.10;99.90
12027;DHT22;6074;52.676;7.284;2022-08-01T08:58:55;18.10;99.90
12027;DHT22;6074;52.676;7.284;2022-08-01T09:01:23;18.10;99.90
12027;DHT22;6074;52.676;7.284;2022-08-01T09:03:51;18.10;99.90
12027;DHT22;6074;52.676;7.284;2022-08-01T09:08:45;18.40;99.90
12027;DHT22;6074;52.676;7.284;2022-08-01T09:13:39;18.20;99.90
12027;DHT22;6074;52.676;7.284;2022-08-01T09:18:34;18.40;99.90
12027;DHT22;6074;52.676;7.284;2022-08-01T09:21:12;18.50;99.90
12027;DHT22;6074;52.676;7.284;2022-08-01T09:23:42;18.30;99.90
12027;DHT22;6074;52.676;7.284;2022-08-01T09:28:37;18.50;99.90
12027;DHT22;6074;52.676;7.284;2022-08-01T09:31:07;18.40;99.90
12027;DHT22;6074;52.676;7.284;2022-08-01T09:33:51;18.50;99.90
12027;DHT22;6074;52.676;7.284;2022-08-01T09:36:20;18.50;99.90
12027;DHT22;6074;52.676;7.284;2022-08-01T09:41:14;18.50;99.90
12027;DHT22;6074;52.676;7.284;2022-08-01T09:43:48;17.90;99.90
12027;DHT22;6074;52.676;7.284;2022-08-01T09:48:55;18.30;99.90
12027;DHT22;6074;52.676;7.284;2022-08-01T09:51:32;18.40;99.90
12027;DHT22;6074;52.676;7.284;2022-08-01T09:54:00;18.50;99.90
12027;DHT22;6074;52.676;7.284;2022-08-01T09:56:36;18.60;99.90
12027;DHT22;6074;52.676;7.284;2022-08-01T10:01:42;18.80;99.90
12027;DHT22;6074;52.676;7.284;2022-08-01T10:04:11;18.90;99.90
12027;DHT22;6074;52.676;7.284;2022-08-01T10:06:42;19.00;99.90
12027;DHT22;6074;52.676;7.284;2022-08-01T10:09:10;19.30;99.90
12027;DHT22;6074;52.676;7.284;2022-08-01T10:14:06;19.40;99.90
12027;DHT22;6074;52.676;7.284;2022-08-01T10:16:34;19.50;99.90
12027;DHT22;6074;52.676;7.284;2022-08-01T10:19:03;19.50;99.90
12027;DHT22;6074;52.676;7.284;2022-08-01T10:21:32;19.50;99.90
12027;DHT22;6074;52.676;7.284;2022-08-01T10:24:02;19.40;99.90
12027;DHT22;6074;52.676;7.284;2022-08-01T10:26:33;19.50;99.90
12027;DHT22;6074;52.676;7.284;2022-08-01T10:29:00;19.40;99.90
12027;DHT22;6074;52.676;7.284;2022-08-01T10:31:28;19.30;99.90
12027;DHT22;6074;52.676;7.284;2022-08-01T10:33:58;19.70;99.90
12027;DHT22;6074;52.676;7.284;2022-08-01T10:38:53;20.10;99.90
12027;DHT22;6074;52.676;7.284;2022-08-01T10:41:22;19.90;99.90
12027;DHT22;6074;52.676;7.284;2022-08-01T10:43:50;19.80;99.90
12027;DHT22;6074;52.676;7.284;2022-08-01T10:46:19;20.10;99.90
12027;DHT22;6074;52.676;7.284;2022-08-01T10:48:51;20.30;99.90
12027;DHT22;6074;52.676;7.284;2022-08-01T10:51:20;20.50;99.90
12027;DHT22;6074;52.676;7.284;2022-08-01T10:58:46;20.60;99.90
12027;DHT22;6074;52.676;7.284;2022-08-01T11:01:15;20.60;99.90
12027;DHT22;6074;52.676;7.284;2022-08-01T11:03:45;20.40;99.90
12027;DHT22;6074;52.676;7.284;2022-08-01T11:06:24;20.60;99.90
12027;DHT22;6074;52.676;7.284;2022-08-01T11:08:53;20.40;99.90
12027;DHT22;6074;52.676;7.284;2022-08-01T11:11:21;20.20;99.90
12027;DHT22;6074;52.676;7.284;2022-08-01T11:14:05;20.40;99.90
12027;DHT22;6074;52.676;7.284;2022-08-01T11:16:36;20.50;99.90
12027;DHT22;6074;52.676;7.284;2022-08-01T11:19:03;20.50;99.90
12027;DHT22;6074;52.676;7.284;2022-08-01T11:21:58;20.60;99.90
12027;DHT22;6074;52.676;7.284;2022-08-01T11:24:54;20.30;99.90
12027;DHT22;6074;52.676;7.284;2022-08-01T11:27:24;20.50;99.90
12027;DHT22;6074;52.676;7.284;2022-08-01T11:30:24;20.40;99.90
12027;DHT22;6074;52.676;7.284;2022-08-01T11:32:53;20.40;99.90
12027;DHT22;6074;52.676;7.284;2022-08-01T11:35:21;20.60;99.90
12027;DHT22;6074;52.676;7.284;2022-08-01T11:37:50;20.50;99.90
12027;DHT22;6074;52.676;7.284;2022-08-01T11:40:19;20.40;99.90
12027;DHT22;6074;52.676;7.284;2022-08-01T11:42:47;20.30;99.90
12027;DHT22;6074;52.676;7.284;2022-08-01T11:45:14;20.20;99.90
12027;DHT22;6074;52.676;7.284;2022-08-01T11:47:46;20.10;99.90
12027;DHT22;6074;52.676;7.284;2022-08-01T11:50:33;20.30;99.90
12027;DHT22;6074;52.676;7.284;2022-08-01T11:53:02;19.90;99.90
12027;DHT22;6074;52.676;7.284;2022-08-01T11:55:29;20.10;99.90
12027;DHT22;6074;52.676;7.284;2022-08-01T11:58:00;20.60;99.90
12027;DHT22;6074;52.676;7.284;2022-08-01T12:00:28;20.20;99.90
12027;DHT22;6074;52.676;7.284;2022-08-01T12:02:59;20.30;99.90
12027;DHT22;6074;52.676;7.284;2022-08-01T12:07:54;20.00;99.90
12027;DHT22;6074;52.676;7.284;2022-08-01T12:10:23;20.30;99.90
12027;DHT22;6074;52.676;7.284;2022-08-01T12:12:52;21.30;99.90
12027;DHT22;6074;52.676;7.284;2022-08-01T12:15:20;20.60;99.90
12027;DHT22;6074;52.676;7.284;2022-08-01T12:17:49;20.80;99.90
12027;DHT22;6074;52.676;7.284;2022-08-01T12:20:21;20.80;99.90
12027;DHT22;6074;52.676;7.284;2022-08-01T12:22:53;20.70;99.90
12027;DHT22;6074;52.676;7.284;2022-08-01T12:27:47;20.80;99.90
12027;DHT22;6074;52.676;7.284;2022-08-01T12:30:15;20.50;99.90
12027;DHT22;6074;52.676;7.284;2022-08-01T12:32:43;20.70;99.90
12027;DHT22;6074;52.676;7.284;2022-08-01T12:35:12;20.70;99.90
12027;DHT22;6074;52.676;7.284;2022-08-01T12:37:42;22.20;99.90
12027;DHT22;6074;52.676;7.284;2022-08-01T12:40:12;20.70;99.90
12027;DHT22;6074;52.676;7.284;2022-08-01T12:42:41;20.40;99.90
12027;DHT22;6074;52.676;7.284;2022-08-01T12:45:09;20.80;99.90
12027;DHT22;6074;52.676;7.284;2022-08-01T12:47:37;20.90;99.90
12027;DHT22;6074;52.676;7.284;2022-08-01T12:50:06;20.90;99.90
12027;DHT22;6074;52.676;7.284;2022-08-01T12:52:34;20.60;99.90
12027;DHT22;6074;52.676;7.284;2022-08-01T12:55:10;20.90;99.90
12027;DHT22;6074;52.676;7.284;2022-08-01T12:57:39;20.80;99.90
12027;DHT22;6074;52.676;7.284;2022-08-01T13:00:10;20.90;99.90
12027;DHT22;6074;52.676;7.284;2022-08-01T13:02:38;21.00;99.90
12027;DHT22;6074;52.676;7.284;2022-08-01T13:05:06;20.70;99.90
12027;DHT22;6074;52.676;7.284;2022-08-01T13:07:51;20.80;99.90
12027;DHT22;6074;52.676;7.284;2022-08-01T13:10:29;21.20;99.90
12027;DHT22;6074;52.676;7.284;2022-08-01T13:12:57;21.20;99.90
12027;DHT22;6074;52.676;7.284;2022-08-01T13:15:27;21.00;99.90
12027;DHT22;6074;52.676;7.284;2022-08-01T13:17:56;20.50;99.90
12027;DHT22;6074;52.676;7.284;2022-08-01T13:20:26;20.60;99.90
12027;DHT22;6074;52.676;7.284;2022-08-01T13:27:48;21.80;99.90
12027;DHT22;6074;52.676;7.284;2022-08-01T13:30:16;20.50;99.90
12027;DHT22;6074;52.676;7.284;2022-08-01T13:32:56;20.50;99.90
12027;DHT22;6074;52.676;7.284;2022-08-01T13:35:23;20.50;99.90
12027;DHT22;6074;52.676;7.284;2022-08-01T13:37:50;20.60;99.90
12027;DHT22;6074;52.676;7.284;2022-08-01T13:40:23;20.60;99.90
12027;DHT22;6074;52.676;7.284;2022-08-01T13:42:52;20.70;99.90
12027;DHT22;6074;52.676;7.284;2022-08-01T13:50:14;20.80;99.90
12027;DHT22;6074;52.676;7.284;2022-08-01T13:52:41;20.40;99.90
12027;DHT22;6074;52.676;7.284;2022-08-01T13:57:35;21.20;99.90
12027;DHT22;6074;52.676;7.284;2022-08-01T14:00:04;20.50;99.90
12027;DHT22;6074;52.676;7.284;2022-08-01T14:02:31;21.20;99.90
12027;DHT22;6074;52.676;7.284;2022-08-01T14:04:58;20.80;99.90
12027;DHT22;6074;52.676;7.284;2022-08-01T14:09:52;20.80;99.90
12027;DHT22;6074;52.676;7.284;2022-08-01T14:14:46;20.80;99.90
12027;DHT22;6074;52.676;7.284;2022-08-01T14:17:14;20.90;99.90
12027;DHT22;6074;52.676;7.284;2022-08-01T14:22:07;20.70;99.90
12027;DHT22;6074;52.676;7.284;2022-08-01T14:34:24;21.00;99.90
12027;DHT22;6074;52.676;7.284;2022-08-01T14:49:09;20.90;99.90
12027;DHT22;6074;52.676;7.284;2022-08-01T14:51:38;20.80;99.90
12027;DHT22;6074;52.676;7.284;2022-08-01T15:08:49;20.90;99.90
12027;DHT22;6074;52.676;7.284;2022-08-01T15:13:43;21.00;99.90
12027;DHT22;6074;52.676;7.284;2022-08-01T15:16:10;22.40;99.90
12027;DHT22;6074;52.676;7.284;2022-08-01T15:23:31;20.80;99.90
12027;DHT22;6074;52.676;7.284;2022-08-01T15:25:59;20.50;99.90
12027;DHT22;6074;52.676;7.284;2022-08-01T15:28:26;20.60;99.90
12027;DHT22;6074;52.676;7.284;2022-08-01T15:40:42;20.60;99.90
12027;DHT22;6074;52.676;7.284;2022-08-01T15:43:10;20.90;99.90
12027;DHT22;6074;52.676;7.284;2022-08-01T15:48:04;20.70;99.90
12027;DHT22;6074;52.676;7.284;2022-08-01T15:50:31;20.70;99.90
12027;DHT22;6074;52.676;7.284;2022-08-01T15:55:25;20.20;99.90
12027;DHT22;6074;52.676;7.284;2022-08-01T16:00:21;20.30;99.90
12027;DHT22;6074;52.676;7.284;2022-08-01T16:02:47;20.20;99.90
12027;DHT22;6074;52.676;7.284;2022-08-01T16:07:41;20.40;99.90
12027;DHT22;6074;52.676;7.284;2022-08-01T16:15:03;20.30;99.90
12027;DHT22;6074;52.676;7.284;2022-08-01T16:17:31;20.50;99.90
12027;DHT22;6074;52.676;7.284;2022-08-01T16:24:52;20.40;99.90
12027;DHT22;6074;52.676;7.284;2022-08-01T16:34:42;20.00;99.90
12027;DHT22;6074;52.676;7.284;2022-08-01T16:37:08;20.10;99.90
12027;DHT22;6074;52.676;7.284;2022-08-01T16:42:03;20.00;99.90
12027;DHT22;6074;52.676;7.284;2022-08-01T16:46:56;20.50;99.90
12027;DHT22;6074;52.676;7.284;2022-08-01T16:49:23;20.00;99.90
12027;DHT22;6074;52.676;7.284;2022-08-01T16:51:52;20.60;99.90
12027;DHT22;6074;52.676;7.284;2022-08-01T17:04:08;20.10;99.90
12027;DHT22;6074;52.676;7.284;2022-08-01T17:09:03;20.20;99.90
12027;DHT22;6074;52.676;7.284;2022-08-01T17:13:57;20.30;99.90
12027;DHT22;6074;52.676;7.284;2022-08-01T17:26:14;19.90;99.90
12027;DHT22;6074;52.676;7.284;2022-08-01T17:31:08;19.50;99.90
12027;DHT22;6074;52.676;7.284;2022-08-01T17:43:25;19.50;99.90
12027;DHT22;6074;52.676;7.284;2022-08-01T17:53:16;19.30;99.90
12027;DHT22;6074;52.676;7.284;2022-08-01T17:58:10;19.40;99.90
12027;DHT22;6074;52.676;7.284;2022-08-01T18:00:40;19.30;99.90
12027;DHT22;6074;52.676;7.284;2022-08-01T18:03:06;19.40;99.90
12027;DHT22;6074;52.676;7.284;2022-08-01T18:05:34;18.70;99.90
12027;DHT22;6074;52.676;7.284;2022-08-01T18:10:28;19.10;99.90
12027;DHT22;6074;52.676;7.284;2022-08-01T18:15:22;19.10;99.90
12027;DHT22;6074;52.676;7.284;2022-08-01T18:17:51;19.00;99.90
12027;DHT22;6074;52.676;7.284;2022-08-01T18:20:17;18.80;99.90
12027;DHT22;6074;52.676;7.284;2022-08-01T18:27:38;18.80;99.90
12027;DHT22;6074;52.676;7.284;2022-08-01T18:30:06;18.80;99.90
12027;DHT22;6074;52.676;7.284;2022-08-01T18:35:01;18.70;99.90
12027;DHT22;6074;52.676;7.284;2022-08-01T18:39:55;19.00;99.90
12027;DHT22;6074;52.676;7.284;2022-08-01T18:42:23;18.60;99.90
12027;DHT22;6074;52.676;7.284;2022-08-01T18:49:44;18.70;99.90
12027;DHT22;6074;52.676;7.284;2022-08-01T18:52:12;18.50;99.90
12027;DHT22;6074;52.676;7.284;2022-08-01T18:59:32;18.20;99.90
12027;DHT22;6074;52.676;7.284;2022-08-01T19:04:26;17.70;99.90
12027;DHT22;6074;52.676;7.284;2022-08-01T19:06:53;17.90;99.90
12027;DHT22;6074;52.676;7.284;2022-08-01T19:09:22;18.10;99.90
12027;DHT22;6074;52.676;7.284;2022-08-01T19:24:06;17.90;99.90
12027;DHT22;6074;52.676;7.284;2022-08-01T19:26:48;17.70;99.90
12027;DHT22;6074;52.676;7.284;2022-08-01T19:29:18;17.70;99.90
12027;DHT22;6074;52.676;7.284;2022-08-01T19:31:46;17.70;99.90
12027;DHT22;6074;52.676;7.284;2022-08-01T19:34:14;17.60;99.90
12027;DHT22;6074;52.676;7.284;2022-08-01T19:36:44;17.60;99.90
12027;DHT22;6074;52.676;7.284;2022-08-01T19:39:12;17.60;99.90
12027;DHT22;6074;52.676;7.284;2022-08-01T19:41:42;17.60;99.90
12027;DHT22;6074;52.676;7.284;2022-08-01T19:44:13;17.60;99.90
12027;DHT22;6074;52.676;7.284;2022-08-01T19:46:40;17.40;99.90
12027;DHT22;6074;52.676;7.284;2022-08-01T19:51:38;17.30;99.90
12027;DHT22;6074;52.676;7.284;2022-08-01T19:54:06;19.50;99.90
12027;DHT22;6074;52.676;7.284;2022-08-01T19:56:36;17.30;99.90
12027;DHT22;6074;52.676;7.284;2022-08-01T19:59:05;17.20;99.90
12027;DHT22;6074;52.676;7.284;2022-08-01T20:01:35;17.00;99.90
12027;DHT22;6074;52.676;7.284;2022-08-01T20:04:03;17.00;99.90
12027;DHT22;6074;52.676;7.284;2022-08-01T20:06:30;16.80;99.90
12027;DHT22;6074;52.676;7.284;2022-08-01T20:08:58;16.70;99.90
12027;DHT22;6074;52.676;7.284;2022-08-01T20:11:25;16.40;99.90
12027;DHT22;6074;52.676;7.284;2022-08-01T20:13:54;16.40;99.90
12027;DHT22;6074;52.676;7.284;2022-08-01T20:16:22;16.30;99.90
12027;DHT22;6074;52.676;7.284;2022-08-01T20:18:50;16.20;99.90
12027;DHT22;6074;52.676;7.284;2022-08-01T20:21:18;16.00;99.90
12027;DHT22;6074;52.676;7.284;2022-08-01T20:23:46;15.80;99.90
12027;DHT22;6074;52.676;7.284;2022-08-01T20:26:15;15.60;99.90
12027;DHT22;6074;52.676;7.284;2022-08-01T20:28:46;15.60;99.90
12027;DHT22;6074;52.676;7.284;2022-08-01T20:31:14;15.50;99.90
12027;DHT22;6074;52.676;7.284;2022-08-01T20:33:45;15.40;99.90
12027;DHT22;6074;52.676;7.284;2022-08-01T20:36:14;15.30;99.90
12027;DHT22;6074;52.676;7.284;2022-08-01T20:38:42;15.20;99.90
12027;DHT22;6074;52.676;7.284;2022-08-01T20:43:36;14.80;99.90
12027;DHT22;6074;52.676;7.284;2022-08-01T20:46:04;14.80;99.90
12027;DHT22;6074;52.676;7.284;2022-08-01T20:48:31;15.10;99.90
12027;DHT22;6074;52.676;7.284;2022-08-01T20:50:59;14.60;99.90
12027;DHT22;6074;52.676;7.284;2022-08-01T20:53:45;14.50;99.90
12027;DHT22;6074;52.676;7.284;2022-08-01T20:56:24;14.40;99.90
12027;DHT22;6074;52.676;7.284;2022-08-01T20:59:03;14.30;99.90
12027;DHT22;6074;52.676;7.284;2022-08-01T21:01:33;14.80;99.90
12027;DHT22;6074;52.676;7.284;2022-08-01T21:04:23;14.10;99.90
12027;DHT22;6074;52.676;7.284;2022-08-01T21:06:54;14.10;99.90
12027;DHT22;6074;52.676;7.284;2022-08-01T21:09:23;13.80;99.90
12027;DHT22;6074;52.676;7.284;2022-08-01T21:11:56;13.90;99.90
12027;DHT22;6074;52.676;7.284;2022-08-01T21:14:39;13.80;99.90
12027;DHT22;6074;52.676;7.284;2022-08-01T21:17:16;13.80;99.90
12027;DHT22;6074;52.676;7.284;2022-08-01T21:19:44;13.80;99.90
12027;DHT22;6074;52.676;7.284;2022-08-01T21:22:19;13.80;99.90
12027;DHT22;6074;52.676;7.284;2022-08-01T21:24:52;13.60;99.90
12027;DHT22;6074;52.676;7.284;2022-08-01T21:27:22;13.70;99.90
12027;DHT22;6074;52.676;7.284;2022-08-01T21:32:17;13.70;99.90
12027;DHT22;6074;52.676;7.284;2022-08-01T21:34:50;13.30;99.90
12027;DHT22;6074;52.676;7.284;2022-08-01T21:37:17;13.40;99.90
12027;DHT22;6074;52.676;7.284;2022-08-01T21:42:14;13.10;99.90
12027;DHT22;6074;52.676;7.284;2022-08-01T21:44:44;13.30;99.90
12027;DHT22;6074;52.676;7.284;2022-08-01T21:47:13;13.20;99.90
12027;DHT22;6074;52.676;7.284;2022-08-01T21:49:41;13.30;99.90
12027;DHT22;6074;52.676;7.284;2022-08-01T21:52:10;13.20;99.90
12027;DHT22;6074;52.676;7.284;2022-08-01T21:54:48;13.20;99.90
12027;DHT22;6074;52.676;7.284;2022-08-01T21:57:28;13.10;99.90
12027;DHT22;6074;52.676;7.284;2022-08-01T22:00:05;13.10;99.90
12027;DHT22;6074;52.676;7.284;2022-08-01T22:02:36;12.90;99.90
12027;DHT22;6074;52.676;7.284;2022-08-01T22:05:07;12.90;99.90
12027;DHT22;6074;52.676;7.284;2022-08-01T22:07:41;12.90;99.90
12027;DHT22;6074;52.676;7.284;2022-08-01T22:10:12;12.80;99.90
12027;DHT22;6074;52.676;7.284;2022-08-01T22:12:41;12.80;99.90
12027;DHT22;6074;52.676;7.284;2022-08-01T22:15:08;12.70;99.90
12027;DHT22;6074;52.676;7.284;2022-08-01T22:17:36;12.60;99.90
12027;DHT22;6074;52.676;7.284;2022-08-01T22:20:05;12.80;99.90
12027;DHT22;6074;52.676;7.284;2022-08-01T22:22:32;13.00;99.90
12027;DHT22;6074;52.676;7.284;2022-08-01T22:24:59;13.00;99.90
12027;DHT22;6074;52.676;7.284;2022-08-01T22:29:56;12.80;99.90
12027;DHT22;6074;52.676;7.284;2022-08-01T22:32:25;12.50;99.90
12027;DHT22;6074;52.676;7.284;2022-08-01T22:34:53;12.80;99.90
12027;DHT22;6074;52.676;7.284;2022-08-01T22:37:20;12.50;99.90
12027;DHT22;6074;52.676;7.284;2022-08-01T22:39:47;12.20;99.90
12027;DHT22;6074;52.676;7.284;2022-08-01T22:42:14;12.40;99.90
12027;DHT22;6074;52.676;7.284;2022-08-01T22:44:51;12.40;99.90
12027;DHT22;6074;52.676;7.284;2022-08-01T22:47:32;12.10;99.90
12027;DHT22;6074;52.676;7.284;2022-08-01T22:50:04;12.40;99.90
12027;DHT22;6074;52.676;7.284;2022-08-01T22:52:36;12.30;99.90
12027;DHT22;6074;52.676;7.284;2022-08-01T22:55:08;12.50;99.90
12027;DHT22;6074;52.676;7.284;2022-08-01T22:57:44;12.10;99.90
12027;DHT22;6074;52.676;7.284;2022-08-01T23:00:13;12.00;99.90